Time;durP1;ratioP1;P1;durP2;ratioP2;P2;SDS_P1;SDS_P2;PMS_P1;PMS_P2;Temp;Humidity;BMP_temperature;BMP_pressure;BME280_temperature;BME280_humidity;BME280_pressure;Samples;Min_cycle;Max_cycle;Signal;HPM_P1;HPM_P2
2022/05/25 00:01:55;;;;;;;1.87;1.47;;;16.40;99.90;;;;;;5067053;28;20223;-75
2022/05/25 00:04:21;;;;;;;1.37;1.37;;;16.40;99.90;;;;;;5067440;28;20211;-76
2022/05/25 00:06:48;;;;;;;1.50;1.40;;;16.20;99.90;;;;;;5061777;28;20663;-76
2022/05/25 00:09:15;;;;;;;1.83;1.60;;;16.20;99.90;;;;;;5047266;28;20234;-76
2022/05/25 00:11:42;;;;;;;1.80;1.23;;;16.30;99.90;;;;;;5046873;28;20253;-76
2022/05/25 00:14:11;;;;;;;1.80;1.40;;;16.20;99.90;;;;;;5047095;28;20678;-76
2022/05/25 00:16:38;;;;;;;2.97;1.50;;;16.20;99.90;;;;;;5049107;28;20278;-75
2022/05/25 00:21:49;;;;;;;1.63;1.40;;;16.10;99.90;;;;;;5065167;28;20226;-75
2022/05/25 00:24:15;;;;;;;1.43;1.33;;;16.20;99.90;;;;;;5070542;28;20256;-77
2022/05/25 00:26:42;;;;;;;1.53;1.43;;;16.20;99.90;;;;;;5070687;28;20207;-77
2022/05/25 00:29:10;;;;;;;2.03;1.23;;;16.20;99.90;;;;;;5070669;28;20411;-77
2022/05/25 00:31:37;;;;;;;1.77;1.63;;;16.20;99.90;;;;;;5069766;28;20249;-77
2022/05/25 00:34:04;;;;;;;1.43;1.37;;;16.20;99.90;;;;;;5070384;28;20200;-77
2022/05/25 00:36:30;;;;;;;1.50;1.40;;;16.20;99.90;;;;;;5070541;28;20207;-77
2022/05/25 00:38:57;;;;;;;3.30;1.80;;;16.10;99.90;;;;;;5070330;28;20211;-77
2022/05/25 00:41:25;;;;;;;1.60;1.50;;;16.00;99.90;;;;;;5070044;28;20247;-77
2022/05/25 00:43:51;;;;;;;1.67;1.57;;;16.00;99.90;;;;;;5069810;28;20577;-77
2022/05/25 00:46:21;;;;;;;1.40;1.40;;;16.10;99.90;;;;;;5066638;28;20200;-77
2022/05/25 00:48:52;;;;;;;1.77;1.67;;;16.10;99.90;;;;;;5068935;28;20203;-78
2022/05/25 00:51:24;;;;;;;1.97;1.50;;;16.10;99.90;;;;;;5070254;28;20226;-77
2022/05/25 00:53:56;;;;;;;1.67;1.50;;;16.10;99.90;;;;;;5069762;28;20231;-77
2022/05/25 00:56:25;;;;;;;2.40;1.80;;;16.10;99.90;;;;;;5070489;28;20442;-77
2022/05/25 00:58:57;;;;;;;1.60;1.50;;;16.10;99.90;;;;;;5070110;28;20200;-77
2022/05/25 01:01:26;;;;;;;1.70;1.60;;;16.00;99.90;;;;;;5070939;28;20227;-77
2022/05/25 01:03:53;;;;;;;1.70;1.60;;;16.00;99.90;;;;;;5070531;28;20211;-77
2022/05/25 01:06:32;;;;;;;1.40;1.40;;;15.90;99.90;;;;;;5070405;28;20238;-77
2022/05/25 01:09:08;;;;;;;1.73;1.63;;;15.90;99.90;;;;;;5070240;28;20199;-76
2022/05/25 01:11:45;;;;;;;1.93;1.70;;;15.80;99.90;;;;;;5070620;28;20609;-77
2022/05/25 01:14:23;;;;;;;1.67;1.57;;;15.80;99.90;;;;;;5063510;28;20724;-77
2022/05/25 01:17:00;;;;;;;2.70;1.83;;;15.70;99.90;;;;;;5051953;28;20196;-77
2022/05/25 01:19:50;;;;;;;1.97;1.87;;;15.70;99.90;;;;;;5069364;28;20681;-77
2022/05/25 01:22:29;;;;;;;1.90;1.80;;;15.60;99.90;;;;;;5050426;28;20196;-77
2022/05/25 01:25:09;;;;;;;4.50;1.93;;;15.60;99.90;;;;;;5052284;28;20196;-77
2022/05/25 01:27:37;;;;;;;1.90;1.80;;;15.60;99.90;;;;;;5069685;28;20203;-78
2022/05/25 01:30:17;;;;;;;1.90;1.80;;;15.60;99.90;;;;;;5069765;28;20207;-77
2022/05/25 01:32:56;;;;;;;1.80;1.70;;;15.60;99.90;;;;;;5069843;28;20207;-77
2022/05/25 01:35:28;;;;;;;2.97;2.07;;;15.60;99.90;;;;;;5070175;28;20195;-76
2022/05/25 01:37:59;;;;;;;1.80;1.70;;;15.50;99.90;;;;;;5069401;28;20206;-77
2022/05/25 01:40:34;;;;;;;2.30;1.90;;;15.50;99.90;;;;;;5069768;28;20243;-79
2022/05/25 01:43:05;;;;;;;1.87;1.77;;;15.50;99.90;;;;;;5070313;28;20595;-80
2022/05/25 01:45:38;;;;;;;1.90;1.80;;;15.50;99.90;;;;;;5069905;28;20191;-80
2022/05/25 01:48:08;;;;;;;1.80;1.70;;;15.50;99.90;;;;;;5070399;28;20325;-80
2022/05/25 01:50:41;;;;;;;2.00;1.90;;;15.50;99.90;;;;;;5070116;28;20348;-80
2022/05/25 01:53:10;;;;;;;2.30;2.10;;;15.50;99.90;;;;;;5064433;28;20196;-80
2022/05/25 01:55:40;;;;;;;2.03;1.93;;;15.50;99.90;;;;;;5051098;28;20204;-80
2022/05/25 01:58:16;;;;;;;2.30;2.10;;;15.50;99.90;;;;;;5068871;28;20196;-80
2022/05/25 02:00:47;;;;;;;1.97;1.87;;;15.50;99.90;;;;;;5068335;28;20648;-81
2022/05/25 02:06:15;;;;;;;2.20;2.00;;;15.50;99.90;;;;;;5066923;28;20297;-80
2022/05/25 02:08:51;;;;;;;2.70;1.90;;;15.40;99.90;;;;;;5068333;28;20245;-80
2022/05/25 02:11:26;;;;;;;1.90;1.80;;;15.40;99.90;;;;;;5049231;28;20203;-80
2022/05/25 02:14:01;;;;;;;1.93;1.83;;;15.40;99.90;;;;;;5049209;28;20192;-78
2022/05/25 02:16:42;;;;;;;2.60;2.23;;;15.40;99.90;;;;;;5051411;28;20192;-78
2022/05/25 02:19:14;;;;;;;2.40;2.00;;;15.30;99.90;;;;;;5048375;28;20609;-74
2022/05/25 02:21:47;;;;;;;2.23;2.03;;;15.30;99.90;;;;;;5061139;28;20826;-74
2022/05/25 02:24:19;;;;;;;2.03;1.93;;;15.40;99.90;;;;;;5068000;28;20243;-77
2022/05/25 02:26:49;;;;;;;2.30;2.20;;;15.40;99.90;;;;;;5068629;28;20195;-79
2022/05/25 02:29:20;;;;;;;2.13;2.03;;;15.40;99.90;;;;;;5068976;28;20232;-78
2022/05/25 02:31:52;;;;;;;2.00;1.90;;;15.40;99.90;;;;;;5069073;28;20235;-78
2022/05/25 02:34:21;;;;;;;2.20;2.10;;;15.40;99.90;;;;;;5068931;28;20204;-78
2022/05/25 02:36:50;;;;;;;2.30;2.10;;;15.40;99.90;;;;;;5069038;28;20641;-78
2022/05/25 02:39:24;;;;;;;3.17;2.87;;;15.40;99.90;;;;;;5069155;28;20207;-78
2022/05/25 02:41:52;;;;;;;2.30;2.20;;;15.30;99.90;;;;;;5068177;28;20242;-79
2022/05/25 02:44:20;;;;;;;2.43;2.23;;;15.30;99.90;;;;;;5069268;28;20356;-79
2022/05/25 02:46:48;;;;;;;2.20;2.10;;;15.30;99.90;;;;;;5065123;28;20218;-78
2022/05/25 02:49:16;;;;;;;2.73;2.43;;;15.30;99.90;;;;;;5048353;28;20257;-79
2022/05/25 02:51:43;;;;;;;2.57;2.23;;;15.30;99.90;;;;;;5047987;28;20204;-79
2022/05/25 02:54:11;;;;;;;2.43;2.20;;;15.30;99.90;;;;;;5047695;28;20260;-78
2022/05/25 02:56:38;;;;;;;2.30;2.20;;;15.10;99.90;;;;;;5048209;28;20265;-78
2022/05/25 02:59:05;;;;;;;2.50;2.30;;;15.20;99.90;;;;;;5063299;28;20204;-78
2022/05/25 03:01:32;;;;;;;2.50;2.30;;;15.30;99.90;;;;;;5066256;28;20321;-78
2022/05/25 03:04:00;;;;;;;2.30;2.10;;;15.10;99.90;;;;;;5056794;28;20287;-78
2022/05/25 03:06:26;;;;;;;2.10;2.00;;;15.20;99.90;;;;;;5049423;28;20216;-76
2022/05/25 03:08:53;;;;;;;2.80;2.60;;;15.20;99.90;;;;;;5047229;28;20207;-75
2022/05/25 03:11:20;;;;;;;2.53;2.30;;;15.30;99.90;;;;;;5047608;28;20208;-78
2022/05/25 03:13:48;;;;;;;2.50;2.40;;;15.40;99.90;;;;;;5058952;28;20253;-78
2022/05/25 03:16:16;;;;;;;3.00;2.63;;;15.40;99.90;;;;;;5063746;28;20192;-78
2022/05/25 03:18:44;;;;;;;2.50;2.30;;;15.20;99.90;;;;;;5057617;28;20296;-77
2022/05/25 03:21:12;;;;;;;2.90;2.70;;;15.30;99.90;;;;;;5047878;28;20596;-78
2022/05/25 03:23:39;;;;;;;2.67;2.50;;;15.40;99.90;;;;;;5057350;28;20650;-76
2022/05/25 03:26:07;;;;;;;2.67;2.47;;;15.50;99.90;;;;;;5064230;28;20214;-77
2022/05/25 03:28:33;;;;;;;3.13;2.90;;;15.50;99.90;;;;;;5051540;28;20239;-77
2022/05/25 03:31:06;;;;;;;2.73;2.53;;;15.50;99.90;;;;;;5045366;28;20222;-76
2022/05/25 03:33:33;;;;;;;3.50;3.20;;;15.50;99.90;;;;;;5045216;28;20208;-76
2022/05/25 03:36:00;;;;;;;3.40;3.13;;;15.30;99.90;;;;;;5044905;28;20212;-77
2022/05/25 03:38:28;;;;;;;2.97;2.73;;;15.30;99.90;;;;;;5045549;28;20290;-76
2022/05/25 03:40:55;;;;;;;2.70;2.60;;;15.30;99.90;;;;;;5044768;28;20240;-77
2022/05/25 03:43:30;;;;;;;3.00;2.80;;;15.30;99.90;;;;;;5045104;28;20269;-77
2022/05/25 03:45:57;;;;;;;3.20;3.00;;;15.30;99.90;;;;;;5064811;28;20249;-77
2022/05/25 03:48:24;;;;;;;2.70;2.60;;;15.40;99.90;;;;;;5050103;28;20212;-76
2022/05/25 03:50:51;;;;;;;2.97;2.70;;;15.40;99.90;;;;;;5045138;28;20216;-77
2022/05/25 03:53:17;;;;;;;3.10;2.90;;;15.40;99.90;;;;;;5048008;28;20228;-77
2022/05/25 03:55:47;;;;;;;3.10;2.90;;;15.40;99.90;;;;;;5066722;28;20269;-77
2022/05/25 03:58:14;;;;;;;3.17;2.67;;;15.40;99.90;;;;;;5068940;28;20242;-77
2022/05/25 04:00:41;;;;;;;2.67;2.57;;;15.40;99.90;;;;;;5062718;28;20208;-77
2022/05/25 04:03:11;;;;;;;2.97;2.87;;;15.40;99.90;;;;;;5052536;28;20216;-81
2022/05/25 04:05:37;;;;;;;3.03;2.73;;;15.50;99.90;;;;;;5065986;28;20219;-79
2022/05/25 04:08:04;;;;;;;3.23;2.90;;;15.50;99.90;;;;;;5070619;28;20726;-73
2022/05/25 04:10:31;;;;;;;3.90;2.73;;;15.40;99.90;;;;;;5064570;28;20248;-76
2022/05/25 04:13:01;;;;;;;3.07;2.90;;;15.40;99.90;;;;;;5061237;28;20278;-75
2022/05/25 04:15:30;;;;;;;3.10;2.80;;;15.40;99.90;;;;;;5050908;28;20302;-76
2022/05/25 04:17:57;;;;;;;4.20;3.17;;;15.50;99.90;;;;;;5061845;28;20975;-73
2022/05/25 04:20:25;;;;;;;3.20;2.97;;;15.50;99.90;;;;;;5069827;28;20199;-75
2022/05/25 04:22:52;;;;;;;3.77;2.90;;;15.50;99.90;;;;;;5059572;28;20281;-74
2022/05/25 04:25:21;;;;;;;4.90;2.97;;;15.50;99.90;;;;;;5050272;28;20215;-73
2022/05/25 04:27:49;;;;;;;3.70;3.07;;;15.50;99.90;;;;;;5060389;28;20261;-74
2022/05/25 04:30:25;;;;;;;3.07;2.83;;;15.60;99.90;;;;;;5059948;28;20204;-74
2022/05/25 04:32:52;;;;;;;3.13;2.90;;;15.60;99.90;;;;;;5058163;28;20708;-74
2022/05/25 04:35:18;;;;;;;3.47;3.27;;;15.60;99.90;;;;;;5065296;28;20273;-74
2022/05/25 04:37:53;;;;;;;3.40;3.10;;;15.40;99.90;;;;;;5054335;28;20204;-74
2022/05/25 04:40:23;;;;;;;3.40;3.10;;;15.40;99.90;;;;;;5063736;28;20205;-74
2022/05/25 04:42:50;;;;;;;3.40;3.10;;;15.40;99.90;;;;;;5059555;28;20617;-74
2022/05/25 04:45:19;;;;;;;3.20;2.90;;;15.50;99.90;;;;;;5054526;28;20860;-74
2022/05/25 04:47:46;;;;;;;3.27;3.00;;;15.50;99.90;;;;;;5056456;28;20208;-74
2022/05/25 04:50:16;;;;;;;3.83;3.53;;;15.60;99.90;;;;;;5052154;28;20199;-74
2022/05/25 04:52:43;;;;;;;3.87;2.83;;;15.60;99.90;;;;;;5061405;28;20736;-74
2022/05/25 04:57:19;;;;;;;3.37;3.27;;;15.60;99.90;;;;;;5060509;28;20264;-74
2022/05/25 04:57:58;;;;;;;3.27;3.07;;;15.70;99.90;;;;;;5061998;28;20204;-74
2022/05/25 05:00:27;;;;;;;3.33;3.13;;;15.70;99.90;;;;;;5064367;28;20744;-74
2022/05/25 05:02:54;;;;;;;3.90;3.60;;;15.70;99.90;;;;;;5065508;28;20227;-74
2022/05/25 05:05:21;;;;;;;4.13;3.40;;;15.50;99.90;;;;;;5051212;28;20829;-74
2022/05/25 05:07:47;;;;;;;3.63;3.43;;;15.40;99.90;;;;;;5053907;28;20196;-74
2022/05/25 05:10:14;;;;;;;4.33;3.40;;;15.10;99.90;;;;;;5056543;28;20199;-74
2022/05/25 05:12:41;;;;;;;3.97;3.63;;;15.10;99.90;;;;;;5058401;28;20262;-74
2022/05/25 05:15:09;;;;;;;3.93;3.60;;;15.00;99.90;;;;;;5059331;28;20207;-74
2022/05/25 05:17:37;;;;;;;5.20;4.80;;;15.10;99.90;;;;;;5061052;28;20204;-74
2022/05/25 05:20:05;;;;;;;7.43;6.83;;;14.90;99.90;;;;;;5056522;28;20211;-74
2022/05/25 05:22:32;;;;;;;4.70;4.33;;;15.00;99.90;;;;;;5057124;28;20231;-74
2022/05/25 05:25:00;;;;;;;4.03;3.73;;;14.70;99.90;;;;;;5057888;28;20931;-75
2022/05/25 05:27:27;;;;;;;3.50;3.30;;;14.60;99.90;;;;;;5059004;28;20280;-74
2022/05/25 05:29:53;;;;;;;3.63;3.37;;;14.80;99.90;;;;;;5062234;28;20200;-74
2022/05/25 05:32:20;;;;;;;4.07;3.77;;;14.70;99.90;;;;;;5065717;28;20735;-74
2022/05/25 05:34:48;;;;;;;3.80;3.60;;;14.70;99.90;;;;;;5051081;28;20250;-74
2022/05/25 05:37:20;;;;;;;4.53;3.63;;;14.80;99.90;;;;;;5048262;28;20270;-74
2022/05/25 05:39:52;;;;;;;3.90;3.70;;;14.90;99.90;;;;;;5050996;28;21059;-73
2022/05/25 05:42:21;;;;;;;3.93;3.63;;;15.00;99.90;;;;;;5051075;28;20246;-73
2022/05/25 05:44:52;;;;;;;4.53;3.80;;;15.00;99.90;;;;;;5048088;28;20208;-74
2022/05/25 05:47:22;;;;;;;3.60;3.40;;;15.00;99.90;;;;;;5056714;28;20696;-73
2022/05/25 05:49:50;;;;;;;3.77;3.57;;;15.20;99.90;;;;;;5061286;28;20207;-74
2022/05/25 05:52:17;;;;;;;3.97;3.67;;;15.10;99.90;;;;;;5061040;28;20196;-74
2022/05/25 05:54:44;;;;;;;3.87;3.57;;;15.20;99.90;;;;;;5057717;28;20699;-74
2022/05/25 05:57:11;;;;;;;3.57;3.27;;;15.30;99.90;;;;;;5050264;28;20666;-73
2022/05/25 05:59:39;;;;;;;3.27;3.07;;;15.50;99.90;;;;;;5053825;28;20222;-74
2022/05/25 06:02:06;;;;;;;3.90;3.70;;;15.60;99.90;;;;;;5055162;28;20235;-74
2022/05/25 06:04:34;;;;;;;3.80;3.60;;;15.70;99.90;;;;;;5061752;28;20195;-73
2022/05/25 06:07:03;;;;;;;4.00;3.70;;;15.60;99.90;;;;;;5060751;28;20199;-73
2022/05/25 06:09:30;;;;;;;3.77;3.57;;;15.60;99.90;;;;;;5059522;28;20281;-73
2022/05/25 06:11:57;;;;;;;3.80;3.60;;;15.60;99.90;;;;;;5051745;28;20744;-74
2022/05/25 06:14:24;;;;;;;4.00;3.70;;;15.40;99.90;;;;;;5054936;28;20265;-74
2022/05/25 06:19:37;;;;;;;4.30;4.00;;;15.40;99.90;;;;;;5060896;28;20194;-74
2022/05/25 06:22:08;;;;;;;4.57;4.27;;;15.30;99.90;;;;;;5054399;28;20239;-74
2022/05/25 06:24:38;;;;;;;4.60;4.17;;;15.40;99.90;;;;;;5056767;28;20223;-74
2022/05/25 06:27:08;;;;;;;4.60;4.20;;;15.40;99.90;;;;;;5057937;28;20572;-74
2022/05/25 06:29:35;;;;;;;4.50;4.20;;;15.40;99.90;;;;;;5052903;28;20243;-74
2022/05/25 06:32:02;;;;;;;3.50;3.30;;;15.50;99.90;;;;;;5058399;28;20207;-73
2022/05/25 06:34:28;;;;;;;4.00;3.80;;;15.60;99.90;;;;;;5061687;28;20207;-73
2022/05/25 06:36:55;;;;;;;4.27;3.60;;;15.60;99.90;;;;;;5066486;28;20537;-74
2022/05/25 06:39:23;;;;;;;4.20;3.90;;;15.80;99.90;;;;;;5049759;28;20208;-73
2022/05/25 06:41:49;;;;;;;3.87;3.67;;;15.70;99.90;;;;;;5062990;28;20864;-73
2022/05/25 06:44:18;;;;;;;3.50;3.30;;;15.90;99.90;;;;;;5067464;28;20210;-73
2022/05/25 06:46:44;;;;;;;3.10;2.90;;;15.80;99.90;;;;;;5054127;28;20206;-74
2022/05/25 06:49:11;;;;;;;3.83;3.53;;;16.00;99.90;;;;;;5058714;28;20258;-73
2022/05/25 06:51:38;;;;;;;3.73;3.33;;;16.10;99.90;;;;;;5051405;28;20265;-73
2022/05/25 06:54:05;;;;;;;3.60;3.40;;;16.30;99.90;;;;;;5067244;28;20296;-73
2022/05/25 06:56:34;;;;;;;3.93;3.63;;;16.40;99.90;;;;;;5063246;28;20211;-73
2022/05/25 06:59:01;;;;;;;4.60;3.20;;;16.40;99.90;;;;;;5059929;28;20211;-74
2022/05/25 07:01:28;;;;;;;3.43;3.23;;;16.40;99.90;;;;;;5067203;28;20208;-74
2022/05/25 07:03:55;;;;;;;3.57;3.27;;;16.50;99.90;;;;;;5047253;28;20262;-74
2022/05/25 07:06:25;;;;;;;3.00;2.90;;;16.50;99.90;;;;;;5065949;28;20253;-74
2022/05/25 07:08:52;;;;;;;3.07;2.87;;;16.60;99.90;;;;;;5066660;28;20207;-74
2022/05/25 07:11:19;;;;;;;3.00;2.90;;;16.60;99.90;;;;;;5048691;28;20600;-74
2022/05/25 07:13:48;;;;;;;4.03;3.27;;;16.60;99.90;;;;;;5047159;28;20211;-73
2022/05/25 07:16:17;;;;;;;3.10;3.00;;;16.50;99.90;;;;;;5048723;28;20246;-73
2022/05/25 07:18:45;;;;;;;3.27;2.97;;;16.50;99.90;;;;;;5063650;28;20264;-74
2022/05/25 07:21:15;;;;;;;3.60;3.07;;;16.50;99.90;;;;;;5067300;28;20207;-73
2022/05/25 07:23:44;;;;;;;4.37;3.10;;;16.60;99.90;;;;;;5063090;28;20223;-73
2022/05/25 07:26:12;;;;;;;3.57;3.37;;;16.60;99.90;;;;;;5063669;28;20204;-73
2022/05/25 07:28:39;;;;;;;3.87;3.53;;;16.50;99.90;;;;;;5069301;28;20253;-73
2022/05/25 07:31:10;;;;;;;3.87;2.90;;;16.50;99.90;;;;;;5059922;28;20270;-73
2022/05/25 07:33:39;;;;;;;3.30;3.10;;;16.50;99.90;;;;;;5051541;28;20209;-73
2022/05/25 07:36:10;;;;;;;3.47;3.20;;;16.60;99.90;;;;;;5055428;28;20207;-73
2022/05/25 07:38:38;;;;;;;2.57;2.37;;;16.80;99.90;;;;;;5071119;28;20238;-73
2022/05/25 07:41:09;;;;;;;3.27;2.97;;;16.90;99.90;;;;;;5071114;28;20227;-74
2022/05/25 07:43:36;;;;;;;2.93;2.73;;;17.00;99.90;;;;;;5071164;28;20296;-73
2022/05/25 07:46:07;;;;;;;3.33;3.13;;;17.00;99.90;;;;;;5070798;28;20661;-73
2022/05/25 07:48:34;;;;;;;3.50;2.67;;;17.10;99.90;;;;;;5067551;28;20223;-74
2022/05/25 07:51:01;;;;;;;3.10;2.90;;;17.20;99.90;;;;;;5067762;28;20204;-73
2022/05/25 07:56:12;;;;;;;3.50;2.70;;;16.80;99.90;;;;;;5059285;28;20770;-73
2022/05/25 07:58:39;;;;;;;3.17;2.40;;;16.80;99.90;;;;;;5060742;28;20246;-73
2022/05/25 08:01:13;;;;;;;2.50;2.30;;;16.90;99.90;;;;;;5058827;28;20207;-73
2022/05/25 08:06:27;;;;;;;3.53;2.63;;;16.80;99.90;;;;;;5049415;28;20187;-73
2022/05/25 08:08:55;;;;;;;4.67;2.70;;;16.80;99.90;;;;;;5055436;28;20257;-73
2022/05/25 08:11:22;;;;;;;2.43;2.27;;;16.90;99.90;;;;;;5057592;28;20199;-73
2022/05/25 08:13:54;;;;;;;2.70;2.50;;;17.10;99.90;;;;;;5070236;28;20745;-74
2022/05/25 08:16:22;;;;;;;3.70;3.40;;;17.30;99.90;;;;;;5059505;28;20192;-74
2022/05/25 08:18:48;;;;;;;5.90;2.63;;;17.30;99.90;;;;;;5064643;28;20226;-73
2022/05/25 08:21:15;;;;;;;3.40;3.07;;;17.30;99.90;;;;;;5063668;28;20208;-72
2022/05/25 08:23:41;;;;;;;3.50;2.27;;;17.20;99.90;;;;;;5068806;28;20239;-73
2022/05/25 08:26:08;;;;;;;2.27;2.17;;;17.30;99.90;;;;;;5052751;28;20212;-73
2022/05/25 08:28:34;;;;;;;3.00;2.80;;;17.30;99.90;;;;;;5068762;28;20219;-72
2022/05/25 08:31:03;;;;;;;5.23;3.20;;;17.10;99.90;;;;;;5067485;28;20356;-73
2022/05/25 08:33:31;;;;;;;3.33;2.47;;;17.00;99.90;;;;;;5062020;28;20199;-73
2022/05/25 08:36:00;;;;;;;3.77;2.70;;;17.10;99.90;;;;;;5069925;28;20207;-73
2022/05/25 08:38:27;;;;;;;3.33;2.93;;;17.10;99.90;;;;;;5068408;28;20621;-73
2022/05/25 08:40:54;;;;;;;4.30;2.73;;;17.10;99.90;;;;;;5069717;28;20234;-73
2022/05/25 08:43:26;;;;;;;4.33;2.90;;;17.20;99.90;;;;;;5063300;28;20239;-73
2022/05/25 08:45:57;;;;;;;3.33;3.13;;;17.10;99.90;;;;;;5058169;28;20208;-73
2022/05/25 08:48:26;;;;;;;3.10;2.80;;;17.00;99.90;;;;;;5058228;28;20219;-73
2022/05/25 08:50:58;;;;;;;3.13;2.83;;;17.00;99.90;;;;;;5060101;28;20655;-73
2022/05/25 08:53:25;;;;;;;4.00;3.20;;;17.20;99.90;;;;;;5048797;28;20698;-72
2022/05/25 08:56:08;;;;;;;2.93;2.70;;;17.30;99.90;;;;;;5059691;28;20672;-73
2022/05/25 08:58:40;;;;;;;2.87;2.70;;;17.40;99.90;;;;;;5062092;28;20234;-73
2022/05/25 09:01:08;;;;;;;4.00;3.20;;;17.50;99.90;;;;;;5060445;28;20197;-73
2022/05/25 09:03:42;;;;;;;3.37;3.07;;;17.50;99.90;;;;;;5057324;28;20221;-73
2022/05/25 09:06:16;;;;;;;3.93;3.17;;;17.60;99.90;;;;;;5061919;28;20195;-73
2022/05/25 09:08:48;;;;;;;3.97;2.57;;;17.70;99.90;;;;;;5059220;28;20211;-73
2022/05/25 09:11:18;;;;;;;4.37;3.00;;;17.80;99.90;;;;;;5057622;28;20196;-73
2022/05/25 09:13:51;;;;;;;4.17;2.30;;;17.80;99.90;;;;;;5058423;28;20199;-73
2022/05/25 09:16:19;;;;;;;2.13;2.03;;;17.80;99.90;;;;;;5059658;28;20192;-73
2022/05/25 09:18:55;;;;;;;2.97;2.23;;;17.80;99.90;;;;;;5059412;28;20670;-73
2022/05/25 09:21:26;;;;;;;3.37;2.30;;;17.80;99.90;;;;;;5058866;28;20199;-73
2022/05/25 09:23:56;;;;;;;3.20;2.27;;;17.80;99.90;;;;;;5059025;28;20238;-73
2022/05/25 09:26:24;;;;;;;2.80;2.60;;;17.80;99.90;;;;;;5055764;28;20203;-73
2022/05/25 09:28:57;;;;;;;2.00;1.90;;;17.80;99.90;;;;;;5058315;28;20723;-74
2022/05/25 09:31:31;;;;;;;2.43;2.23;;;17.70;99.90;;;;;;5057262;28;20184;-73
2022/05/25 09:34:00;;;;;;;3.17;1.70;;;17.70;99.90;;;;;;5057376;28;20204;-73
2022/05/25 09:36:33;;;;;;;2.73;1.80;;;17.80;99.90;;;;;;5058810;28;20733;-73
2022/05/25 09:39:04;;;;;;;2.20;2.00;;;18.00;99.90;;;;;;5057935;28;20211;-73
2022/05/25 09:41:32;;;;;;;2.10;2.00;;;18.00;99.90;;;;;;5058749;28;20273;-74
2022/05/25 09:44:01;;;;;;;2.43;2.20;;;18.30;99.90;;;;;;5058768;28;20314;-74
2022/05/25 09:46:30;;;;;;;1.80;1.70;;;18.40;99.90;;;;;;5054574;28;20200;-74
2022/05/25 09:48:59;;;;;;;3.23;1.60;;;18.40;99.90;;;;;;5056179;28;20250;-74
2022/05/25 09:51:35;;;;;;;2.63;2.00;;;18.50;99.90;;;;;;5057944;28;20258;-74
2022/05/25 09:54:05;;;;;;;2.77;2.10;;;18.60;99.90;;;;;;5051085;28;20529;-74
2022/05/25 09:56:36;;;;;;;1.33;1.30;;;18.70;99.90;;;;;;5058807;28;20212;-74
2022/05/25 09:59:07;;;;;;;1.80;1.70;;;18.80;99.90;;;;;;5056459;28;20622;-74
2022/05/25 10:01:41;;;;;;;2.00;1.80;;;18.80;99.90;;;;;;5057192;28;20484;-74
2022/05/25 10:04:09;;;;;;;2.20;2.00;;;18.80;99.90;;;;;;5056503;28;20223;-74
2022/05/25 10:06:50;;;;;;;1.60;1.50;;;18.70;99.90;;;;;;5064129;28;20203;-74
2022/05/25 10:09:20;;;;;;;1.80;1.70;;;18.70;99.90;;;;;;5058062;28;20856;-74
2022/05/25 10:11:48;;;;;;;2.03;1.83;;;18.80;99.90;;;;;;5067313;28;20192;-73
2022/05/25 10:14:26;;;;;;;1.87;1.77;;;18.90;99.60;;;;;;5061584;28;20214;-73
2022/05/25 10:16:54;;;;;;;1.63;1.53;;;19.10;99.40;;;;;;5064003;28;20215;-73
2022/05/25 10:19:22;;;;;;;1.90;1.80;;;19.10;99.90;;;;;;5059486;28;20254;-74
2022/05/25 10:21:52;;;;;;;1.57;1.40;;;19.10;99.80;;;;;;5062416;28;20212;-74
2022/05/25 10:24:24;;;;;;;2.03;1.60;;;18.90;99.90;;;;;;5059586;28;20227;-73
2022/05/25 10:26:55;;;;;;;1.43;1.17;;;18.90;98.90;;;;;;5061162;28;20223;-73
2022/05/25 10:38:12;;;;;;;1.30;1.20;;;19.10;99.90;;;;;;5059770;28;20284;-72
2022/05/25 10:40:44;;;;;;;1.73;1.23;;;19.20;99.40;;;;;;5049710;28;20725;-73
2022/05/25 10:43:16;;;;;;;1.80;1.20;;;19.30;99.50;;;;;;5060912;28;20223;-74
2022/05/25 10:45:51;;;;;;;1.47;1.37;;;19.40;99.30;;;;;;5055160;28;20208;-74
2022/05/25 10:48:26;;;;;;;1.00;1.00;;;19.50;98.70;;;;;;5055008;28;20202;-72
2022/05/25 10:50:57;;;;;;;4.13;1.60;;;19.50;98.40;;;;;;5059828;28;20305;-73
2022/05/25 10:53:31;;;;;;;1.73;1.13;;;19.70;98.60;;;;;;5052787;28;20223;-73
2022/05/25 10:56:05;;;;;;;1.50;1.10;;;19.80;98.30;;;;;;5060769;28;20198;-73
2022/05/25 10:58:42;;;;;;;1.20;0.83;;;19.80;98.20;;;;;;5055490;28;20245;-73
2022/05/25 11:01:24;;;;;;;1.23;1.10;;;19.90;98.80;;;;;;5055402;28;20195;-75
2022/05/25 11:04:27;;;;;;;1.30;1.10;;;19.90;98.50;;;;;;5056086;28;20756;-74
2022/05/25 11:07:14;;;;;;;1.50;1.37;;;20.00;98.60;;;;;;5057151;28;20214;-74
2022/05/25 11:09:59;;;;;;;0.90;0.90;;;20.30;98.60;;;;;;5056950;28;20375;-74
2022/05/25 11:12:40;;;;;;;1.27;1.00;;;20.40;97.70;;;;;;5057200;28;20609;-74
2022/05/25 11:15:17;;;;;;;1.80;0.90;;;20.30;96.80;;;;;;5055570;28;20203;-74
2022/05/25 11:17:59;;;;;;;0.90;0.80;;;20.50;96.30;;;;;;5056149;28;20701;-74
2022/05/25 11:20:31;;;;;;;1.33;0.90;;;20.50;95.90;;;;;;5053244;28;20203;-75
2022/05/25 11:23:10;;;;;;;1.00;1.00;;;20.70;95.80;;;;;;5054495;28;20257;-74
2022/05/25 11:25:52;;;;;;;1.10;1.00;;;20.70;95.40;;;;;;5063884;28;20196;-74
2022/05/25 11:28:28;;;;;;;1.07;0.97;;;20.80;96.10;;;;;;5057428;28;20218;-74
2022/05/25 11:31:13;;;;;;;1.07;1.00;;;20.60;95.90;;;;;;5057089;28;20230;-74
2022/05/25 11:34:07;;;;;;;1.00;0.90;;;20.40;96.20;;;;;;5058231;28;20196;-74
2022/05/25 11:36:45;;;;;;;0.80;0.80;;;20.50;96.70;;;;;;5061161;28;20205;-77
2022/05/25 11:39:22;;;;;;;2.00;1.00;;;20.70;97.20;;;;;;5050503;28;20199;-74
2022/05/25 11:41:58;;;;;;;0.97;0.90;;;20.30;95.60;;;;;;5056341;28;20653;-74
2022/05/25 11:44:42;;;;;;;1.53;0.90;;;20.20;95.40;;;;;;5055336;28;20259;-74
2022/05/25 11:47:24;;;;;;;0.80;0.80;;;20.30;95.70;;;;;;5055125;28;20912;-74
2022/05/25 11:50:05;;;;;;;1.10;0.90;;;20.50;95.60;;;;;;5054582;28;20614;-74
2022/05/25 11:52:46;;;;;;;1.87;1.00;;;20.60;95.20;;;;;;5046088;28;20216;-74
2022/05/25 11:55:20;;;;;;;2.40;1.20;;;20.80;95.60;;;;;;5052131;28;20730;-74
2022/05/25 11:58:00;;;;;;;3.17;1.30;;;20.80;95.20;;;;;;5057162;28;20276;-74
2022/05/25 12:00:35;;;;;;;2.13;1.23;;;20.80;95.90;;;;;;5051690;28;20246;-74
2022/05/25 12:03:22;;;;;;;1.37;1.27;;;20.90;94.80;;;;;;5057929;28;20727;-74
2022/05/25 12:06:00;;;;;;;1.70;1.30;;;20.80;95.20;;;;;;5051881;28;20220;-74
2022/05/25 12:08:44;;;;;;;3.47;1.10;;;20.50;95.40;;;;;;5050619;28;20200;-74
2022/05/25 12:11:19;;;;;;;2.47;1.23;;;20.60;96.20;;;;;;5051686;28;20252;-74
2022/05/25 12:13:58;;;;;;;1.00;0.90;;;20.50;95.20;;;;;;5059933;28;20250;-74
2022/05/25 12:16:33;;;;;;;1.50;1.40;;;20.10;95.90;;;;;;5063067;28;20195;-75
2022/05/25 12:19:07;;;;;;;2.53;0.90;;;20.00;96.20;;;;;;5056199;28;20210;-75
2022/05/25 12:21:38;;;;;;;1.53;0.77;;;19.80;96.30;;;;;;5069921;28;20272;-74
2022/05/25 12:24:09;;;;;;;1.93;0.90;;;19.80;96.10;;;;;;5054488;28;20220;-74
2022/05/25 12:26:38;;;;;;;0.90;0.90;;;20.00;96.90;;;;;;5063152;28;20286;-75
2022/05/25 12:29:21;;;;;;;0.90;0.90;;;20.50;96.10;;;;;;5068866;28;20234;-75
2022/05/25 12:31:52;;;;;;;1.17;0.90;;;20.90;95.30;;;;;;5068105;28;20248;-75
2022/05/25 12:34:25;;;;;;;0.80;0.80;;;21.30;95.70;;;;;;5068340;28;20200;-75
2022/05/25 12:36:52;;;;;;;1.00;0.90;;;21.40;93.80;;;;;;5058751;28;20200;-75
2022/05/25 12:39:53;;;;;;;1.70;1.07;;;21.50;94.30;;;;;;5047698;28;20209;-75
2022/05/25 12:42:43;;;;;;;1.67;1.47;;;21.80;94.40;;;;;;5053767;28;20231;-75
2022/05/25 12:48:47;;;;;;;1.37;1.00;;;22.30;93.80;;;;;;5052298;28;20259;-75
2022/05/25 12:51:32;;;;;;;1.00;0.90;;;22.20;93.00;;;;;;5049519;28;20200;-74
2022/05/25 12:54:00;;;;;;;1.90;1.00;;;21.60;92.50;;;;;;5048674;28;20714;-75
2022/05/25 12:56:36;;;;;;;2.53;0.70;;;21.20;92.80;;;;;;5049880;28;20200;-74
2022/05/25 12:59:07;;;;;;;1.77;1.07;;;21.20;93.30;;;;;;5069546;28;20207;-74
2022/05/25 13:01:37;;;;;;;1.10;1.00;;;21.30;93.80;;;;;;5069803;28;20203;-74
2022/05/25 13:04:39;;;;;;;1.87;1.00;;;21.10;93.20;;;;;;5053565;28;20231;-73
2022/05/25 13:07:21;;;;;;;1.47;0.60;;;20.90;93.40;;;;;;5066880;28;20208;-74
2022/05/25 13:09:49;;;;;;;1.43;0.97;;;20.90;93.20;;;;;;5059364;28;20196;-75
2022/05/25 13:12:56;;;;;;;0.70;0.60;;;21.00;93.20;;;;;;5047320;28;20563;-73
2022/05/25 13:15:44;;;;;;;1.00;0.80;;;21.00;92.00;;;;;;5055219;28;20609;-74
2022/05/25 13:18:50;;;;;;;0.70;0.70;;;20.70;92.60;;;;;;5067169;28;20211;-73
2022/05/25 13:22:06;;;;;;;0.80;0.80;;;20.60;93.00;;;;;;5057550;28;20211;-73
2022/05/25 13:24:54;;;;;;;0.83;0.80;;;20.30;92.60;;;;;;4994035;28;20803;-74
2022/05/25 13:28:06;;;;;;;0.70;0.60;;;20.40;93.30;;;;;;5047171;28;20200;-73
2022/05/25 13:30:59;;;;;;;1.43;0.80;;;20.80;93.50;;;;;;5046850;28;20625;-74
2022/05/25 13:33:28;;;;;;;0.57;0.57;;;21.10;92.80;;;;;;5060581;28;20262;-74
2022/05/25 13:35:58;;;;;;;2.47;0.70;;;21.50;93.00;;;;;;5066985;28;20234;-74
2022/05/25 13:38:34;;;;;;;0.90;0.70;;;21.90;92.30;;;;;;5062117;28;20258;-75